createdAt,value
2018-04-20T00:00:59.719Z,18.04
2018-04-20T00:01:59.438Z,17.88
2018-04-20T00:02:59.425Z,17.91
2018-04-20T00:03:59.680Z,17.79
2018-04-20T00:04:59.680Z,17.81
2018-04-20T00:05:59.391Z,17.79
2018-04-20T00:06:59.907Z,17.73
2018-04-20T00:07:59.899Z,17.73
2018-04-20T00:08:59.624Z,17.71
2018-04-20T00:09:59.351Z,17.73
2018-04-20T00:10:59.873Z,17.73
2018-04-20T00:11:59.331Z,17.81
2018-04-20T00:12:59.319Z,17.7
2018-04-20T00:13:59.579Z,17.69
2018-04-20T00:14:59.831Z,17.67
2018-04-20T00:15:59.555Z,17.57
2018-04-20T00:16:59.809Z,17.53
2018-04-20T00:17:59.268Z,17.43
2018-04-20T00:18:59.786Z,17.46
2018-04-20T00:19:59.781Z,17.53
2018-04-20T00:20:59.511Z,17.44
2018-04-20T00:21:59.492Z,17.53
2018-04-20T00:22:59.742Z,17.5
2018-04-20T00:23:59.467Z,17.47
2018-04-20T00:24:59.193Z,17.47
2018-04-20T00:25:59.726Z,17.33
2018-04-20T00:26:59.436Z,17.38
2018-04-20T00:27:59.431Z,17.38
2018-04-20T00:28:59.412Z,17.38
2018-04-20T00:29:59.402Z,17.38
2018-04-20T00:30:59.389Z,17.28
2018-04-20T00:31:59.647Z,17.32
2018-04-20T00:32:59.365Z,17.29
2018-04-20T00:33:59.357Z,17.29
2018-04-20T00:34:59.609Z,17.23
2018-04-20T00:35:59.071Z,17.2
2018-04-20T00:36:59.070Z,17.13
2018-04-20T00:37:59.520Z,17.13
2018-04-20T00:38:59.037Z,17.07
2018-04-20T00:39:59.296Z,17.06
2018-04-20T00:40:59.555Z,17.13
2018-04-20T00:41:59.547Z,17.04
2018-04-20T00:42:59.259Z,16.95
2018-04-20T00:43:59.257Z,16.92
2018-04-20T00:44:58.975Z,16.89
2018-04-20T00:45:58.963Z,16.89
2018-04-20T00:46:58.951Z,16.81
2018-04-20T00:47:58.944Z,16.86
2018-04-20T00:48:59.194Z,16.77
2018-04-20T00:49:59.190Z,16.7
2018-04-20T00:50:59.441Z,16.67
2018-04-20T00:51:59.159Z,16.85
2018-04-20T00:52:59.158Z,16.71
2018-04-20T00:53:59.147Z,16.75
2018-04-20T00:54:59.399Z,16.63
2018-04-20T00:55:58.848Z,16.59
2018-04-20T00:56:59.110Z,16.63
2018-04-20T00:57:59.364Z,16.52
2018-04-20T00:58:59.088Z,16.49
2018-04-20T00:59:59.079Z,16.53
2018-04-20T01:00:58.796Z,16.42
2018-04-20T01:01:58.782Z,16.35
2018-04-20T01:02:59.038Z,16.4
2018-04-20T01:03:59.031Z,16.3
2018-04-20T01:04:59.280Z,16.23
2018-04-20T01:05:59.274Z,16.25
2018-04-20T01:06:58.990Z,16.18
2018-04-20T01:07:59.248Z,16.14
2018-04-20T01:08:59.232Z,16.15
2018-04-20T01:09:59.217Z,16.07
2018-04-20T01:10:59.210Z,16.01
2018-04-20T01:11:58.935Z,15.96
2018-04-20T01:12:58.658Z,16
2018-04-20T01:13:59.220Z,15.94
2018-04-20T01:14:58.897Z,15.88
2018-04-20T01:15:59.151Z,15.86
2018-04-20T01:16:58.608Z,15.92
2018-04-20T01:17:59.213Z,15.79
2018-04-20T01:18:58.854Z,15.74
2018-04-20T01:19:58.847Z,15.74
2018-04-20T01:20:59.102Z,15.75
2018-04-20T01:21:59.107Z,15.67
2018-04-20T01:22:58.816Z,15.61
2018-04-20T01:23:58.803Z,15.7
2018-04-20T01:24:58.515Z,15.6
2018-04-20T01:25:58.503Z,15.6
2018-04-20T01:26:58.761Z,15.52
2018-04-20T01:27:59.023Z,15.6
2018-04-20T01:28:58.730Z,15.52
2018-04-20T01:29:58.721Z,15.54
2018-04-20T01:30:58.710Z,15.54
2018-04-20T01:31:58.705Z,15.52
2018-04-20T01:32:58.690Z,15.49
2018-04-20T01:33:58.685Z,15.46
2018-04-20T01:34:58.663Z,15.33
2018-04-20T01:35:58.389Z,15.38
2018-04-20T01:36:58.902Z,15.35
2018-04-20T01:37:58.631Z,15.38
2018-04-20T01:38:58.884Z,15.3
2018-04-20T01:39:58.612Z,15.33
2018-04-20T01:40:58.331Z,15.28
2018-04-20T01:41:58.594Z,15.33
2018-04-20T01:42:58.569Z,15.33
2018-04-20T01:43:58.554Z,15.23
2018-04-20T01:44:58.810Z,15.38
2018-04-20T01:45:58.535Z,15.36
2018-04-20T01:46:58.520Z,15.41
2018-04-20T01:47:58.773Z,15.39
2018-04-20T01:48:58.228Z,15.38
2018-04-20T01:49:58.752Z,15.31
2018-04-20T01:50:58.467Z,15.48
2018-04-20T01:51:58.456Z,15.48
2018-04-20T01:52:58.445Z,15.52
2018-04-20T01:53:58.442Z,15.51
2018-04-20T01:54:58.423Z,15.56
2018-04-20T01:55:58.676Z,15.64
2018-04-20T01:56:58.393Z,15.6
2018-04-20T01:57:58.121Z,15.63
2018-04-20T01:58:58.374Z,15.64
2018-04-20T01:59:58.626Z,15.7
2018-04-20T02:00:58.723Z,15.74
2018-04-20T02:01:58.336Z,15.78
2018-04-20T02:02:58.596Z,15.96
2018-04-20T02:03:58.581Z,15.85
2018-04-20T02:04:58.034Z,15.89
2018-04-20T02:05:58.288Z,15.86
2018-04-20T02:06:58.646Z,15.84
2018-04-20T02:07:58.268Z,15.81
2018-04-20T02:08:58.522Z,15.82
2018-04-20T02:09:58.243Z,15.86
2018-04-20T02:10:58.494Z,15.81
2018-04-20T02:11:58.217Z,15.78
2018-04-20T02:12:58.211Z,15.72
2018-04-20T02:13:57.932Z,15.76
2018-04-20T02:14:58.185Z,15.6
2018-04-20T02:15:58.439Z,15.68
2018-04-20T02:16:57.895Z,15.68
2018-04-20T02:17:58.411Z,15.59
2018-04-20T02:18:58.139Z,15.56
2018-04-20T02:19:58.389Z,15.57
2018-04-20T02:20:58.116Z,15.54
2018-04-20T02:21:58.361Z,15.49
2018-04-20T02:22:58.083Z,15.45
2018-04-20T02:23:58.073Z,15.46
2018-04-20T02:24:58.063Z,15.28
2018-04-20T02:25:58.312Z,15.36
2018-04-20T02:26:58.313Z,15.36
2018-04-20T02:27:58.288Z,15.35
2018-04-20T02:28:58.010Z,15.28
2018-04-20T02:29:57.737Z,15.24
2018-04-20T02:30:58.060Z,15.19
2018-04-20T02:31:57.759Z,15.17
2018-04-20T02:32:58.243Z,15.15
2018-04-20T02:33:57.686Z,15.12
2018-04-20T02:34:57.673Z,15.06
2018-04-20T02:35:57.933Z,15.12
2018-04-20T02:36:57.648Z,14.98
2018-04-20T02:37:58.299Z,15.02
2018-04-20T02:38:57.902Z,14.98
2018-04-20T02:39:58.163Z,14.98
2018-04-20T02:40:58.158Z,14.95
2018-04-20T02:41:57.591Z,14.91
2018-04-20T02:42:58.116Z,14.9
2018-04-20T02:43:57.837Z,14.84
2018-04-20T02:44:57.819Z,14.83
2018-04-20T02:45:57.810Z,14.81
2018-04-20T02:46:57.795Z,14.78
2018-04-20T02:47:57.859Z,14.75
2018-04-20T02:48:58.040Z,14.75
2018-04-20T02:49:58.029Z,14.75
2018-04-20T02:50:57.494Z,14.74
2018-04-20T02:51:58.007Z,14.65
2018-04-20T02:52:57.990Z,14.72
2018-04-20T02:53:57.709Z,14.75
2018-04-20T02:54:57.966Z,14.67
2018-04-20T02:55:57.683Z,14.68
2018-04-20T02:56:57.671Z,14.69
2018-04-20T02:57:57.662Z,14.68
2018-04-20T02:58:57.915Z,14.68
2018-04-20T02:59:57.897Z,14.61
2018-04-20T03:00:57.622Z,14.68
2018-04-20T03:01:57.874Z,14.52
2018-04-20T03:02:57.597Z,14.61
2018-04-20T03:03:57.847Z,14.52
2018-04-20T03:04:57.840Z,14.61
2018-04-20T03:05:57.555Z,14.57
2018-04-20T03:06:57.804Z,14.6
2018-04-20T03:07:57.663Z,14.49
2018-04-20T03:08:57.804Z,14.56
2018-04-20T03:09:57.523Z,14.54
2018-04-20T03:10:57.242Z,14.61
2018-04-20T03:11:57.491Z,14.5
2018-04-20T03:12:57.466Z,14.52
2018-04-20T03:13:57.460Z,14.49
2018-04-20T03:14:57.446Z,14.53
2018-04-20T03:15:57.429Z,14.52
2018-04-20T03:16:57.685Z,14.53
2018-04-20T03:17:57.424Z,14.52
2018-04-20T03:18:57.394Z,14.53
2018-04-20T03:19:57.108Z,14.53
2018-04-20T03:20:57.366Z,14.49
2018-04-20T03:21:57.356Z,14.54
2018-04-20T03:22:57.605Z,14.52
2018-04-20T03:23:57.598Z,14.54
2018-04-20T03:24:57.595Z,14.52
2018-04-20T03:25:57.039Z,14.49
2018-04-20T03:26:57.032Z,14.47
2018-04-20T03:27:57.011Z,14.56
2018-04-20T03:28:57.282Z,14.43
2018-04-20T03:29:56.989Z,14.52
2018-04-20T03:30:56.976Z,14.49
2018-04-20T03:31:57.241Z,14.49
2018-04-20T03:32:57.488Z,14.37
2018-04-20T03:33:57.482Z,14.34
2018-04-20T03:34:57.187Z,14.37
2018-04-20T03:35:57.182Z,14.34
2018-04-20T03:36:57.429Z,14.28
2018-04-20T03:37:57.147Z,14.24
2018-04-20T03:38:57.145Z,14.34
2018-04-20T03:39:57.402Z,14.29
2018-04-20T03:40:56.846Z,14.13
2018-04-20T03:41:57.364Z,14.2
2018-04-20T03:42:56.823Z,14.16
2018-04-20T03:43:57.338Z,14.13
2018-04-20T03:44:57.530Z,14.28
2018-04-20T03:45:57.055Z,14.27
2018-04-20T03:46:57.043Z,14.29
2018-04-20T03:47:57.293Z,14.27
2018-04-20T03:48:57.013Z,14.21
2018-04-20T03:49:57.004Z,14.28
2018-04-20T03:50:57.256Z,14.24
2018-04-20T03:51:56.975Z,14.19
2018-04-20T03:52:56.693Z,14.24
2018-04-20T03:53:56.683Z,14.2
2018-04-20T03:54:56.933Z,14.12
2018-04-20T03:55:56.653Z,14.21
2018-04-20T03:56:56.642Z,14.1
2018-04-20T03:57:56.897Z,14.1
2018-04-20T03:58:56.879Z,14.02
2018-04-20T03:59:56.868Z,14.02
2018-04-20T04:00:57.121Z,14.04
2018-04-20T04:01:57.122Z,14.01
2018-04-20T04:02:56.570Z,13.98
2018-04-20T04:03:56.554Z,13.94
2018-04-20T04:04:57.073Z,13.94
2018-04-20T04:05:57.061Z,13.83
2018-04-20T04:06:56.510Z,13.87
2018-04-20T04:07:56.761Z,13.92
2018-04-20T04:08:56.757Z,13.84
2018-04-20T04:09:56.734Z,13.89
2018-04-20T04:10:56.722Z,13.92
2018-04-20T04:11:56.446Z,13.87
2018-04-20T04:12:56.706Z,13.95
2018-04-20T04:13:56.416Z,13.92
2018-04-20T04:14:56.667Z,13.96
2018-04-20T04:15:56.655Z,13.91
2018-04-20T04:16:56.383Z,13.99
2018-04-20T04:17:56.685Z,13.92
2018-04-20T04:18:56.350Z,13.89
2018-04-20T04:19:56.345Z,13.95
2018-04-20T04:20:56.855Z,13.94
2018-04-20T04:21:56.599Z,13.91
2018-04-20T04:22:56.565Z,13.96
2018-04-20T04:23:56.550Z,13.94
2018-04-20T04:24:56.544Z,13.95
2018-04-20T04:25:56.529Z,14.01
2018-04-20T04:26:56.778Z,13.95
2018-04-20T04:27:56.761Z,13.89
2018-04-20T04:28:56.762Z,13.92
2018-04-20T04:29:56.741Z,13.92
2018-04-20T04:30:56.460Z,13.89
2018-04-20T04:31:56.180Z,13.95
2018-04-20T04:32:56.694Z,13.89
2018-04-20T04:33:56.690Z,13.79
2018-04-20T04:34:56.407Z,13.81
2018-04-20T04:35:56.391Z,13.87
2018-04-20T04:36:56.375Z,13.77
2018-04-20T04:37:56.774Z,13.79
2018-04-20T04:38:56.632Z,13.83
2018-04-20T04:39:56.072Z,13.8
2018-04-20T04:40:56.609Z,13.79
2018-04-20T04:41:56.577Z,13.79
2018-04-20T04:42:56.317Z,13.79
2018-04-20T04:43:56.286Z,13.8
2018-04-20T04:44:56.271Z,13.77
2018-04-20T04:45:56.255Z,13.79
2018-04-20T04:46:56.514Z,13.87
2018-04-20T04:47:56.347Z,13.69
2018-04-20T04:48:56.229Z,13.69
2018-04-20T04:49:56.472Z,13.81
2018-04-20T04:50:56.194Z,13.71
2018-04-20T04:51:56.441Z,13.7
2018-04-20T04:52:56.190Z,13.76
2018-04-20T04:53:56.436Z,13.76
2018-04-20T04:54:56.145Z,13.73
2018-04-20T04:55:55.866Z,13.73
2018-04-20T04:56:56.380Z,13.81
2018-04-20T04:57:56.365Z,13.69
2018-04-20T04:58:56.081Z,13.74
2018-04-20T04:59:56.070Z,13.73
2018-04-20T05:00:56.065Z,13.74
2018-04-20T05:01:56.308Z,13.73
2018-04-20T05:02:55.772Z,13.69
2018-04-20T05:03:56.025Z,13.73
2018-04-20T05:04:56.007Z,13.7
2018-04-20T05:05:55.726Z,13.76
2018-04-20T05:06:55.714Z,13.73
2018-04-20T05:07:55.970Z,13.76
2018-04-20T05:08:56.216Z,13.65
2018-04-20T05:09:55.948Z,13.67
2018-04-20T05:10:55.933Z,13.71
2018-04-20T05:11:55.913Z,13.67
2018-04-20T05:12:55.910Z,13.87
2018-04-20T05:13:56.150Z,13.84
2018-04-20T05:14:56.141Z,13.79
2018-04-20T05:15:55.861Z,13.8
2018-04-20T05:16:55.583Z,13.83
2018-04-20T05:17:55.834Z,13.83
2018-04-20T05:18:55.822Z,13.83
2018-04-20T05:19:55.541Z,13.79
2018-04-20T05:20:55.802Z,13.83
2018-04-20T05:21:55.515Z,13.87
2018-04-20T05:22:55.500Z,13.84
2018-04-20T05:23:56.018Z,13.89
2018-04-20T05:24:55.748Z,13.91
2018-04-20T05:25:55.730Z,13.96
2018-04-20T05:26:55.460Z,13.95
2018-04-20T05:27:55.712Z,13.99
2018-04-20T05:28:55.961Z,14.06
2018-04-20T05:29:55.948Z,14.09
2018-04-20T05:30:55.930Z,14.19
2018-04-20T05:31:55.649Z,14.25
2018-04-20T05:32:56.034Z,14.25
2018-04-20T05:33:55.651Z,14.21
2018-04-20T05:34:55.927Z,14.38
2018-04-20T05:35:55.346Z,14.37
2018-04-20T05:36:55.848Z,14.35
2018-04-20T05:37:55.847Z,14.49
2018-04-20T05:38:55.844Z,14.44
2018-04-20T05:39:55.552Z,14.49
2018-04-20T05:40:55.539Z,14.43
2018-04-20T05:41:55.798Z,14.5
2018-04-20T05:42:55.773Z,14.47
2018-04-20T05:43:55.504Z,14.56
2018-04-20T05:44:55.481Z,14.53
2018-04-20T05:45:55.476Z,14.52
2018-04-20T05:46:55.457Z,14.61
2018-04-20T05:47:55.185Z,14.52
2018-04-20T05:48:55.431Z,14.69
2018-04-20T05:49:55.413Z,14.69
2018-04-20T05:50:55.140Z,14.67
2018-04-20T05:51:55.402Z,14.68
2018-04-20T05:52:55.380Z,14.74
2018-04-20T05:53:55.105Z,14.72
2018-04-20T05:54:55.618Z,14.8
2018-04-20T05:55:55.340Z,14.84
2018-04-20T05:56:55.062Z,14.95
2018-04-20T05:57:55.313Z,14.99
2018-04-20T05:58:55.577Z,14.98
2018-04-20T05:59:55.293Z,14.98
2018-04-20T06:00:55.547Z,15.08
2018-04-20T06:01:55.538Z,15.09
2018-04-20T06:02:55.523Z,15.19
2018-04-20T06:03:54.978Z,15.09
2018-04-20T06:04:55.230Z,15.2
2018-04-20T06:05:55.220Z,15.26
2018-04-20T06:06:55.472Z,15.3
2018-04-20T06:07:55.191Z,15.39
2018-04-20T06:08:54.916Z,15.36
2018-04-20T06:09:55.171Z,15.33
2018-04-20T06:10:54.893Z,15.48
2018-04-20T06:11:55.144Z,15.52
2018-04-20T06:12:55.168Z,15.52
2018-04-20T06:13:54.855Z,15.54
2018-04-20T06:14:55.171Z,15.63
2018-04-20T06:15:55.089Z,15.59
2018-04-20T06:16:55.079Z,15.64
2018-04-20T06:17:54.803Z,15.67
2018-04-20T06:18:55.057Z,15.84
2018-04-20T06:19:55.312Z,15.82
2018-04-20T06:20:55.035Z,15.88
2018-04-20T06:21:55.025Z,15.93
2018-04-20T06:22:54.749Z,15.99
2018-04-20T06:23:55.002Z,16.15
2018-04-20T06:24:54.987Z,16.14
2018-04-20T06:25:54.975Z,16.25
2018-04-20T06:26:55.439Z,16.27
2018-04-20T06:27:54.683Z,16.33
2018-04-20T06:28:54.938Z,16.27
2018-04-20T06:29:54.657Z,16.37
2018-04-20T06:30:54.921Z,16.4
2018-04-20T06:31:54.903Z,16.41
2018-04-20T06:32:55.313Z,16.5
2018-04-20T06:33:54.891Z,16.59
2018-04-20T06:34:54.599Z,16.65
2018-04-20T06:35:54.852Z,16.6
2018-04-20T06:36:55.113Z,16.7
2018-04-20T06:37:54.845Z,16.71
2018-04-20T06:38:54.562Z,16.7
2018-04-20T06:39:55.085Z,16.65
2018-04-20T06:40:55.067Z,16.81
2018-04-20T06:41:54.793Z,16.85
2018-04-20T06:42:55.049Z,16.92
2018-04-20T06:43:55.040Z,16.9
2018-04-20T06:44:55.028Z,17.03
2018-04-20T06:45:54.741Z,17.03
2018-04-20T06:46:54.741Z,17.07
2018-04-20T06:47:54.996Z,17.15
2018-04-20T06:48:54.971Z,17.22
2018-04-20T06:49:54.696Z,17.36
2018-04-20T06:50:54.423Z,17.44
2018-04-20T06:51:54.420Z,17.55
2018-04-20T06:52:54.664Z,17.54
2018-04-20T06:53:54.397Z,17.73
2018-04-20T06:54:54.645Z,17.74
2018-04-20T06:55:54.375Z,17.84
2018-04-20T06:56:54.724Z,17.84
2018-04-20T06:57:54.616Z,17.92
2018-04-20T06:58:54.877Z,17.91
2018-04-20T06:59:54.860Z,18.07
2018-04-20T07:00:54.580Z,18.17
2018-04-20T07:01:54.573Z,18.28
2018-04-20T07:02:54.828Z,18.28
2018-04-20T07:03:54.285Z,18.44
2018-04-20T07:04:54.603Z,18.57
2018-04-20T07:05:54.796Z,18.62
2018-04-20T07:06:54.784Z,18.72
2018-04-20T07:07:54.780Z,18.82
2018-04-20T07:08:54.502Z,18.82
2018-04-20T07:09:54.223Z,18.94
2018-04-20T07:10:54.483Z,18.97
2018-04-20T07:11:54.474Z,18.99
2018-04-20T07:12:54.189Z,19.01
2018-04-20T07:13:54.716Z,19.05
2018-04-20T07:14:54.706Z,19.21
2018-04-20T07:15:54.434Z,19.33
2018-04-20T07:16:54.151Z,19.29
2018-04-20T07:17:54.141Z,19.36
2018-04-20T07:18:54.403Z,19.42
2018-04-20T07:19:54.389Z,19.58
2018-04-20T07:20:54.393Z,19.58
2018-04-20T07:21:54.104Z,19.66
2018-04-20T07:22:54.356Z,19.72
2018-04-20T07:23:54.627Z,19.76
2018-04-20T07:24:54.337Z,19.8
2018-04-20T07:25:54.065Z,19.97
2018-04-20T07:26:54.323Z,20.13
2018-04-20T07:27:54.043Z,20.21
2018-04-20T07:28:54.034Z,20.27
2018-04-20T07:29:54.564Z,20.31
2018-04-20T07:30:54.544Z,20.42
2018-04-20T07:31:54.536Z,20.46
2018-04-20T07:32:54.270Z,20.49
2018-04-20T07:33:54.263Z,20.46
2018-04-20T07:34:54.249Z,20.65
2018-04-20T07:35:54.499Z,20.72
2018-04-20T07:36:54.220Z,20.8
2018-04-20T07:37:54.489Z,20.76
2018-04-20T07:38:53.946Z,20.8
2018-04-20T07:39:54.198Z,20.93
2018-04-20T07:40:54.191Z,20.99
2018-04-20T07:41:54.455Z,21.08
2018-04-20T07:42:54.178Z,21.2
2018-04-20T07:43:54.163Z,21.23
2018-04-20T07:44:54.153Z,21.23
2018-04-20T07:45:54.143Z,21.27
2018-04-20T07:46:53.876Z,21.41
2018-04-20T07:47:54.396Z,21.5
2018-04-20T07:48:54.121Z,21.53
2018-04-20T07:49:54.378Z,21.54
2018-04-20T07:50:54.370Z,21.67
2018-04-20T07:51:54.371Z,21.67
2018-04-20T07:52:53.820Z,21.85
2018-04-20T07:53:54.080Z,21.91
2018-04-20T07:54:54.341Z,22.04
2018-04-20T07:55:54.330Z,22.02
2018-04-20T07:56:54.061Z,22.16
2018-04-20T07:57:54.042Z,22.17
2018-04-20T07:58:54.302Z,22.2
2018-04-20T07:59:54.343Z,22.34
2018-04-20T08:00:54.338Z,22.29
2018-04-20T08:01:53.757Z,22.31
2018-04-20T08:02:54.012Z,22.52
2018-04-20T08:03:54.298Z,22.46
2018-04-20T08:04:54.275Z,22.56
2018-04-20T08:05:54.257Z,22.69
2018-04-20T08:06:53.711Z,22.75
2018-04-20T08:07:53.970Z,22.87
2018-04-20T08:08:54.265Z,22.92
2018-04-20T08:09:54.216Z,22.84
2018-04-20T08:10:54.205Z,22.99
2018-04-20T08:11:54.205Z,23.01
2018-04-20T08:12:53.944Z,23.17
2018-04-20T08:13:54.361Z,23.45
2018-04-20T08:14:54.180Z,24.05
2018-04-20T08:15:54.171Z,24.85
2018-04-20T08:16:53.906Z,25.57
2018-04-20T08:17:53.902Z,25.83
2018-04-20T08:18:53.890Z,25.82
2018-04-20T08:19:53.892Z,25.68
2018-04-20T08:20:53.881Z,25.68
2018-04-20T08:21:54.144Z,25.69
2018-04-20T08:22:53.869Z,25.68
2018-04-20T08:23:54.135Z,25.82
2018-04-20T08:24:53.864Z,25.99
2018-04-20T08:25:53.866Z,26.36
2018-04-20T08:26:54.112Z,26.76
2018-04-20T08:27:54.117Z,26.95
2018-04-20T08:28:53.886Z,27.19
2018-04-20T08:29:54.123Z,27.35
2018-04-20T08:30:53.839Z,27.11
2018-04-20T08:31:53.568Z,27.28
2018-04-20T08:32:53.829Z,27.53
2018-04-20T08:33:53.558Z,27.8
2018-04-20T08:34:53.812Z,27.58
2018-04-20T08:35:53.545Z,27.5
2018-04-20T08:36:54.074Z,27.36
2018-04-20T08:37:54.079Z,27.24
2018-04-20T08:38:54.009Z,27.09
2018-04-20T08:39:53.795Z,27.06
2018-04-20T08:40:53.790Z,27.1
2018-04-20T08:41:53.521Z,27.29
2018-04-20T08:42:53.780Z,27.57
2018-04-20T08:43:53.774Z,27.76
2018-04-20T08:44:53.511Z,28.28
2018-04-20T08:45:54.040Z,28.68
2018-04-20T08:46:53.502Z,29.07
2018-04-20T08:47:53.772Z,28.69
2018-04-20T08:48:54.025Z,28.01
2018-04-20T08:49:54.026Z,27.96
2018-04-20T08:50:53.758Z,27.89
2018-04-20T08:51:53.751Z,27.86
2018-04-20T08:52:53.745Z,27.73
2018-04-20T08:53:53.745Z,27.69
2018-04-20T08:54:53.741Z,27.59
2018-04-20T08:55:53.737Z,27.33
2018-04-20T08:56:53.733Z,27.26
2018-04-20T08:57:53.990Z,27.2
2018-04-20T08:58:53.720Z,27.06
2018-04-20T08:59:53.984Z,27.04
2018-04-20T09:00:53.987Z,26.95
2018-04-20T09:01:53.717Z,26.81
2018-04-20T09:02:53.978Z,26.8
2018-04-20T09:03:53.446Z,26.68
2018-04-20T09:04:53.709Z,26.58
2018-04-20T09:05:53.702Z,26.49
2018-04-20T09:06:53.429Z,26.35
2018-04-20T09:07:53.956Z,26.2
2018-04-20T09:08:53.692Z,26.11
2018-04-20T09:09:53.948Z,26.27
2018-04-20T09:10:53.951Z,26.32
2018-04-20T09:11:53.681Z,26.54
2018-04-20T09:12:53.680Z,26.69
2018-04-20T09:13:53.933Z,26.8
2018-04-20T09:14:53.934Z,26.73
2018-04-20T09:15:53.664Z,26.67
2018-04-20T09:16:53.928Z,26.8
2018-04-20T09:17:53.659Z,26.79
2018-04-20T09:18:53.925Z,26.73
2018-04-20T09:19:53.659Z,26.83
2018-04-20T09:20:53.923Z,26.74
2018-04-20T09:21:53.647Z,26.84
2018-04-20T09:22:53.394Z,26.92
2018-04-20T09:23:53.653Z,27.04
2018-04-20T09:24:53.910Z,27.13
2018-04-20T09:25:53.909Z,27.32
2018-04-20T09:26:53.641Z,27.73
2018-04-20T09:27:53.903Z,27.71
2018-04-20T09:28:53.633Z,27.76
2018-04-20T09:29:53.633Z,27.76
2018-04-20T09:30:53.900Z,27.88
2018-04-20T09:31:53.370Z,28.11
2018-04-20T09:32:53.626Z,28.16
2018-04-20T09:33:53.627Z,28.19
2018-04-20T09:34:53.360Z,28.29
2018-04-20T09:35:53.623Z,28.21
2018-04-20T09:36:53.886Z,28.06
2018-04-20T09:37:53.880Z,28.1
2018-04-20T09:38:53.621Z,27.96
2018-04-20T09:39:53.728Z,27.73
2018-04-20T09:40:53.347Z,27.8
2018-04-20T09:41:53.617Z,27.86
2018-04-20T09:42:53.610Z,27.74
2018-04-20T09:43:53.341Z,27.64
2018-04-20T09:44:53.601Z,27.59
2018-04-20T09:45:53.602Z,27.57
2018-04-20T09:46:53.596Z,27.59
2018-04-20T09:47:53.339Z,27.51
2018-04-20T09:48:53.865Z,27.43
2018-04-20T09:49:53.595Z,27.42
2018-04-20T09:50:53.591Z,27.36
2018-04-20T09:51:53.856Z,27.35
2018-04-20T09:52:53.586Z,27.41
2018-04-20T09:53:53.848Z,27.33
2018-04-20T09:54:53.578Z,27.24
2018-04-20T09:55:53.573Z,27.23
2018-04-20T09:56:53.574Z,27.24
2018-04-20T09:57:53.839Z,27.26
2018-04-20T09:58:53.327Z,27.26
2018-04-20T09:59:53.827Z,27.35
2018-04-20T10:00:53.832Z,27.53
2018-04-20T10:01:53.558Z,27.54
2018-04-20T10:02:53.556Z,27.62
2018-04-20T10:03:53.553Z,27.71
2018-04-20T10:04:53.868Z,27.58
2018-04-20T10:05:53.282Z,27.69
2018-04-20T10:06:53.279Z,27.77
2018-04-20T10:07:53.977Z,27.89
2018-04-20T10:08:53.803Z,27.91
2018-04-20T10:09:53.806Z,27.89
2018-04-20T10:10:53.805Z,27.74
2018-04-20T10:11:53.535Z,27.66
2018-04-20T10:12:53.578Z,27.66
2018-04-20T10:13:53.798Z,27.69
2018-04-20T10:14:53.787Z,27.62
2018-04-20T10:15:53.252Z,27.71
2018-04-20T10:16:53.254Z,27.67
2018-04-20T10:17:53.779Z,27.59
2018-04-20T10:18:53.244Z,27.66
2018-04-20T10:19:53.508Z,27.71
2018-04-20T10:20:53.240Z,27.8
2018-04-20T10:21:53.772Z,27.89
2018-04-20T10:22:53.499Z,27.89
2018-04-20T10:23:53.764Z,27.91
2018-04-20T10:24:53.515Z,27.99
2018-04-20T10:25:53.486Z,27.92
2018-04-20T10:26:53.755Z,28.09
2018-04-20T10:27:53.226Z,28.19
2018-04-20T10:28:53.761Z,28.44
2018-04-20T10:29:53.215Z,28.58
2018-04-20T10:30:53.476Z,28.77
2018-04-20T10:31:53.747Z,28.8
2018-04-20T10:32:53.480Z,28.95
2018-04-20T10:33:53.478Z,29.15
2018-04-20T10:34:53.481Z,29.47
2018-04-20T10:35:53.551Z,29.66
2018-04-20T10:36:53.476Z,29.79
2018-04-20T10:37:53.470Z,29.68
2018-04-20T10:38:53.928Z,29.66
2018-04-20T10:39:53.455Z,29.7
2018-04-20T10:40:53.733Z,29.84
2018-04-20T10:41:53.194Z,29.94
2018-04-20T10:42:53.724Z,30.11
2018-04-20T10:43:53.186Z,30
2018-04-20T10:44:53.457Z,30
2018-04-20T10:45:53.719Z,29.86
2018-04-20T10:46:53.445Z,30.03
2018-04-20T10:47:53.719Z,30.21
2018-04-20T10:48:53.441Z,30.3
2018-04-20T10:49:53.717Z,30.37
2018-04-20T10:50:53.440Z,30.49
2018-04-20T10:51:53.448Z,30.62
2018-04-20T10:52:53.176Z,30.59
2018-04-20T10:53:53.450Z,30.78
2018-04-20T10:54:53.725Z,30.81
2018-04-20T10:55:53.441Z,30.98
2018-04-20T10:56:53.176Z,30.96
2018-04-20T10:57:53.440Z,30.99
2018-04-20T10:58:53.713Z,31.05
2018-04-20T10:59:53.439Z,31.11
2018-04-20T11:00:53.704Z,31.33
2018-04-20T11:01:53.437Z,31.53
2018-04-20T11:02:53.714Z,31.87
2018-04-20T11:03:53.710Z,32.02
2018-04-20T11:04:53.716Z,31.73
2018-04-20T11:05:53.182Z,31.75
2018-04-20T11:06:53.724Z,31.68
2018-04-20T11:07:53.456Z,31.8
2018-04-20T11:08:53.455Z,32.02
2018-04-20T11:09:53.728Z,32.4
2018-04-20T11:10:53.495Z,32.69
2018-04-20T11:11:53.467Z,32.95
2018-04-20T11:12:53.522Z,33.14
2018-04-20T11:13:53.762Z,33.14
2018-04-20T11:14:53.483Z,33.15
2018-04-20T11:15:53.756Z,33.17
2018-04-20T11:16:53.759Z,32.74
2018-04-20T11:17:53.497Z,32.8
2018-04-20T11:18:53.766Z,32.64
2018-04-20T11:19:53.772Z,32.79
2018-04-20T11:20:53.779Z,33.07
2018-04-20T11:21:53.513Z,33.41
2018-04-20T11:22:53.524Z,33.61
2018-04-20T11:23:53.538Z,33.67
2018-04-20T11:24:53.270Z,33.7
2018-04-20T11:25:53.543Z,33.92
2018-04-20T11:26:53.546Z,34.24
2018-04-20T11:27:53.559Z,34.53
2018-04-20T11:28:53.821Z,34.66
2018-04-20T11:29:53.558Z,34.24
2018-04-20T11:30:53.576Z,34.38
2018-04-20T11:31:53.577Z,34.48
2018-04-20T11:32:53.330Z,34.77
2018-04-20T11:33:53.597Z,34.84
2018-04-20T11:34:53.863Z,35.15
2018-04-20T11:35:53.875Z,35.15
2018-04-20T11:36:53.655Z,35.13
2018-04-20T11:37:53.360Z,35.23
2018-04-20T11:38:53.626Z,34.46
2018-04-20T11:39:53.950Z,33.61
2018-04-20T11:40:53.647Z,33.76
2018-04-20T11:41:53.388Z,34.08
2018-04-20T11:42:53.932Z,34.26
2018-04-20T11:43:53.929Z,34.09
2018-04-20T11:44:53.684Z,34.44
2018-04-20T11:45:53.426Z,34.42
2018-04-20T11:46:53.697Z,34.05
2018-04-20T11:47:53.971Z,34.29
2018-04-20T11:48:53.709Z,34.63
2018-04-20T11:49:53.712Z,34.98
2018-04-20T11:50:53.722Z,35.2
2018-04-20T11:51:54.001Z,35.44
2018-04-20T11:52:53.748Z,35.62
2018-04-20T11:53:53.874Z,35.74
2018-04-20T11:54:53.773Z,35.81
2018-04-20T11:55:54.036Z,35.76
2018-04-20T11:56:53.778Z,35.76
2018-04-20T11:57:54.058Z,35.84
2018-04-20T11:58:53.527Z,35.82
2018-04-20T11:59:53.791Z,35.66
2018-04-20T12:00:54.107Z,35.92
2018-04-20T12:01:53.821Z,36.26
2018-04-20T12:02:54.084Z,36.56
2018-04-20T12:03:54.087Z,36.72
2018-04-20T12:04:54.109Z,36.04
2018-04-20T12:05:54.145Z,35.92
2018-04-20T12:06:53.847Z,35.58
2018-04-20T12:07:53.595Z,35.64
2018-04-20T12:08:54.132Z,35.35
2018-04-20T12:09:53.883Z,35.28
2018-04-20T12:10:54.158Z,35.76
2018-04-20T12:11:53.893Z,35.81
2018-04-20T12:12:53.899Z,35.95
2018-04-20T12:13:54.176Z,36.17
2018-04-20T12:14:53.916Z,36.26
2018-04-20T12:15:54.186Z,35.99
2018-04-20T12:16:54.197Z,35.6
2018-04-20T12:17:53.678Z,35.45
2018-04-20T12:18:53.953Z,35.63
2018-04-20T12:19:54.231Z,35.13
2018-04-20T12:20:53.966Z,35.2
2018-04-20T12:21:54.242Z,34.76
2018-04-20T12:22:53.980Z,35.07
2018-04-20T12:23:53.989Z,35.47
2018-04-20T12:24:54.263Z,35.66
2018-04-20T12:25:54.273Z,36.04
2018-04-20T12:26:54.011Z,36.31
2018-04-20T12:27:54.223Z,36.63
2018-04-20T12:28:54.295Z,36.87
2018-04-20T12:29:53.773Z,36.46
2018-04-20T12:30:54.325Z,36.45
2018-04-20T12:31:54.318Z,35.81
2018-04-20T12:32:54.332Z,35.81
2018-04-20T12:33:54.071Z,35.67
2018-04-20T12:34:54.078Z,35.62
2018-04-20T12:35:54.091Z,35.37
2018-04-20T12:36:54.366Z,35.29
2018-04-20T12:37:54.105Z,35.48
2018-04-20T12:38:54.115Z,35.77
2018-04-20T12:39:53.857Z,35.35
2018-04-20T12:40:54.129Z,35.52
2018-04-20T12:41:54.143Z,35.76
2018-04-20T12:42:54.152Z,35.86
2018-04-20T12:43:54.154Z,35.47
2018-04-20T12:44:54.097Z,35.42
2018-04-20T12:45:54.430Z,35.72
2018-04-20T12:46:54.181Z,35.55
2018-04-20T12:47:54.532Z,35.76
2018-04-20T12:48:53.923Z,35.44
2018-04-20T12:49:54.466Z,35.74
2018-04-20T12:50:54.475Z,35.7
2018-04-20T12:51:54.217Z,35.39
2018-04-20T12:52:54.372Z,35.44
2018-04-20T12:53:54.502Z,35.84
2018-04-20T12:54:54.506Z,36.01
2018-04-20T12:55:53.985Z,36.06